Time;durP1;ratioP1;P1;durP2;ratioP2;P2;SDS_P1;SDS_P2;PMS_P1;PMS_P2;Temp;Humidity;BMP_temperature;BMP_pressure;BME280_temperature;BME280_humidity;BME280_pressure;Samples;Min_cycle;Max_cycle;Signal;HPM_P1;HPM_P2
2021/10/27 00:01:06;;;;;;;;;;;14.40;99.90;;;;;;4978290;28;1915;-52
2021/10/27 00:03:32;;;;;;;;;;;14.40;99.90;;;;;;4978328;28;806;-52
2021/10/27 00:05:58;;;;;;;;;;;14.40;99.90;;;;;;4975290;28;1244;-52
2021/10/27 00:08:24;;;;;;;;;;;14.40;99.90;;;;;;4976465;28;1296;-52
2021/10/27 00:10:50;;;;;;;;;;;14.40;99.90;;;;;;4977975;28;848;-52
2021/10/27 00:13:16;;;;;;;;;;;14.40;99.90;;;;;;4978193;28;1073;-52
2021/10/27 00:15:42;;;;;;;;;;;14.40;99.90;;;;;;4978067;28;886;-52
2021/10/27 00:18:08;;;;;;;;;;;14.40;99.90;;;;;;4978135;28;1045;-52
2021/10/27 00:20:35;;;;;;;;;;;14.40;99.90;;;;;;4977838;28;1977;-52
2021/10/27 00:23:01;;;;;;;;;;;14.40;99.90;;;;;;4978021;28;904;-52
2021/10/27 00:25:27;;;;;;;;;;;14.40;99.90;;;;;;4977939;28;1057;-52
2021/10/27 00:27:53;;;;;;;;;;;14.40;99.90;;;;;;4978023;28;1176;-52
2021/10/27 00:30:19;;;;;;;;;;;14.40;99.90;;;;;;4976573;28;1416;-52
2021/10/27 00:32:45;;;;;;;;;;;14.40;99.90;;;;;;4977684;28;857;-52
2021/10/27 00:35:11;;;;;;;;;;;14.40;99.90;;;;;;4977476;28;904;-52
2021/10/27 00:37:37;;;;;;;;;;;14.40;99.90;;;;;;4976628;28;911;-52
2021/10/27 00:40:03;;;;;;;;;;;14.40;99.90;;;;;;4977750;28;862;-52
2021/10/27 00:42:29;;;;;;;;;;;14.40;99.90;;;;;;4977621;28;1962;-53
2021/10/27 00:44:55;;;;;;;;;;;14.40;99.90;;;;;;4977256;28;1147;-52
2021/10/27 00:47:21;;;;;;;;;;;14.40;99.90;;;;;;4977430;28;1017;-52
2021/10/27 00:49:47;;;;;;;;;;;14.40;99.90;;;;;;4977193;28;890;-52
2021/10/27 00:52:14;;;;;;;;;;;14.40;99.90;;;;;;4977341;28;1020;-52
2021/10/27 00:54:42;;;;;;;;;;;14.40;99.90;;;;;;4977239;28;896;-52
2021/10/27 00:57:08;;;;;;;;;;;14.40;99.90;;;;;;4974305;28;1079;-52
2021/10/27 00:59:43;;;;;;;;;;;14.40;99.90;;;;;;4976967;28;897;-52
2021/10/27 01:02:10;;;;;;;;;;;14.40;99.90;;;;;;4975112;28;1902;-52
2021/10/27 01:04:36;;;;;;;;;;;14.30;99.90;;;;;;4977207;28;831;-52
2021/10/27 01:07:02;;;;;;;;;;;14.30;99.90;;;;;;4977412;28;905;-52
2021/10/27 01:09:28;;;;;;;;;;;14.30;99.90;;;;;;4977355;28;827;-52
2021/10/27 01:11:54;;;;;;;;;;;14.30;99.90;;;;;;4977889;28;860;-52
2021/10/27 01:14:20;;;;;;;;;;;14.30;99.90;;;;;;4976986;28;804;-52
2021/10/27 01:16:47;;;;;;;;;;;14.30;99.90;;;;;;4977169;28;893;-52
2021/10/27 01:19:13;;;;;;;;;;;14.30;99.90;;;;;;4974076;28;802;-52
2021/10/27 01:21:41;;;;;;;;;;;14.30;99.90;;;;;;4973946;28;1879;-52
2021/10/27 01:24:07;;;;;;;;;;;14.30;99.90;;;;;;4974082;28;1126;-52
2021/10/27 01:26:34;;;;;;;;;;;14.30;99.90;;;;;;4977426;28;958;-52
2021/10/27 01:29:00;;;;;;;;;;;14.30;99.90;;;;;;4977248;28;1002;-52
2021/10/27 01:31:26;;;;;;;;;;;14.30;99.90;;;;;;4977009;28;941;-52
2021/10/27 01:33:53;;;;;;;;;;;14.30;99.90;;;;;;4976778;28;829;-52
2021/10/27 01:36:19;;;;;;;;;;;14.30;99.90;;;;;;4977076;28;871;-52
2021/10/27 01:38:48;;;;;;;;;;;14.30;99.90;;;;;;4977068;28;941;-52
2021/10/27 01:41:15;;;;;;;;;;;14.30;99.90;;;;;;4976820;28;1910;-52
2021/10/27 01:43:51;;;;;;;;;;;14.30;99.90;;;;;;4976703;28;1036;-52
2021/10/27 01:46:24;;;;;;;;;;;14.30;99.90;;;;;;4976647;28;846;-52
2021/10/27 01:48:50;;;;;;;;;;;14.30;99.90;;;;;;4976740;28;819;-52
2021/10/27 01:51:16;;;;;;;;;;;14.30;99.90;;;;;;4976770;28;768;-52
2021/10/27 01:53:42;;;;;;;;;;;14.30;99.90;;;;;;4976703;28;894;-52
2021/10/27 01:56:08;;;;;;;;;;;14.30;99.90;;;;;;4977002;28;953;-52
2021/10/27 01:58:34;;;;;;;;;;;14.30;99.90;;;;;;4976964;28;874;-52
2021/10/27 02:01:00;;;;;;;;;;;14.30;99.90;;;;;;4976354;28;1961;-52
2021/10/27 02:03:26;;;;;;;;;;;14.30;99.90;;;;;;4976566;28;874;-52
2021/10/27 02:05:52;;;;;;;;;;;14.30;99.90;;;;;;4974277;28;1343;-52
2021/10/27 02:08:18;;;;;;;;;;;14.30;99.90;;;;;;4976544;28;838;-52
2021/10/27 02:10:44;;;;;;;;;;;14.30;99.90;;;;;;4978653;28;865;-52
2021/10/27 02:13:10;;;;;;;;;;;14.30;99.90;;;;;;4977742;28;1372;-52
2021/10/27 02:15:37;;;;;;;;;;;14.30;99.90;;;;;;4980455;28;955;-52
2021/10/27 02:18:03;;;;;;;;;;;14.30;99.90;;;;;;4980062;28;948;-52
2021/10/27 02:20:29;;;;;;;;;;;14.30;99.90;;;;;;4980200;28;925;-52
2021/10/27 02:22:55;;;;;;;;;;;14.30;99.90;;;;;;4979966;28;1915;-52
2021/10/27 02:25:21;;;;;;;;;;;14.30;99.90;;;;;;4980057;28;849;-52
2021/10/27 02:27:47;;;;;;;;;;;14.30;99.90;;;;;;4979896;28;890;-52
2021/10/27 02:30:13;;;;;;;;;;;14.30;99.90;;;;;;4980020;28;807;-52
2021/10/27 02:32:39;;;;;;;;;;;14.30;99.90;;;;;;4979077;28;1325;-52
2021/10/27 02:35:05;;;;;;;;;;;14.30;99.90;;;;;;4977944;28;859;-52
2021/10/27 02:37:31;;;;;;;;;;;14.30;99.90;;;;;;4979765;28;782;-52
2021/10/27 02:39:57;;;;;;;;;;;14.30;99.90;;;;;;4979676;28;893;-52
2021/10/27 02:42:22;;;;;;;;;;;14.30;99.90;;;;;;4979709;28;1914;-53
2021/10/27 02:44:48;;;;;;;;;;;14.30;99.90;;;;;;4979398;28;1130;-54
2021/10/27 02:47:14;;;;;;;;;;;14.30;99.90;;;;;;4979661;28;817;-54
2021/10/27 02:49:40;;;;;;;;;;;14.30;99.90;;;;;;4979644;28;858;-54
2021/10/27 02:52:06;;;;;;;;;;;14.30;99.90;;;;;;4979538;28;890;-54
2021/10/27 02:54:32;;;;;;;;;;;14.30;99.90;;;;;;4976362;28;849;-54
2021/10/27 02:56:58;;;;;;;;;;;14.30;99.90;;;;;;4979388;28;999;-54
2021/10/27 02:59:24;;;;;;;;;;;14.30;99.90;;;;;;4979398;28;830;-54
2021/10/27 03:01:50;;;;;;;;;;;14.30;99.90;;;;;;4979161;28;1959;-54
2021/10/27 03:04:16;;;;;;;;;;;14.30;99.90;;;;;;4979465;28;870;-54
2021/10/27 03:06:42;;;;;;;;;;;14.30;99.90;;;;;;4979176;28;979;-54
2021/10/27 03:09:08;;;;;;;;;;;14.30;99.90;;;;;;4979170;28;883;-54
2021/10/27 03:11:34;;;;;;;;;;;14.30;99.90;;;;;;4979108;28;1039;-54
2021/10/27 03:14:00;;;;;;;;;;;14.30;99.90;;;;;;4979083;28;814;-54
2021/10/27 03:16:26;;;;;;;;;;;14.30;99.90;;;;;;4978978;28;877;-54
2021/10/27 03:18:52;;;;;;;;;;;14.30;99.90;;;;;;4979191;28;949;-54
2021/10/27 03:21:18;;;;;;;;;;;14.30;99.90;;;;;;4978765;28;1906;-54
2021/10/27 03:23:44;;;;;;;;;;;14.30;99.90;;;;;;4978978;28;873;-54
2021/10/27 03:26:10;;;;;;;;;;;14.20;99.90;;;;;;4978923;28;798;-54
2021/10/27 03:28:36;;;;;;;;;;;14.20;99.90;;;;;;4978913;28;869;-54
2021/10/27 03:31:02;;;;;;;;;;;14.20;99.90;;;;;;4978735;28;842;-54
2021/10/27 03:33:28;;;;;;;;;;;14.20;99.90;;;;;;4976367;28;802;-53
2021/10/27 03:35:54;;;;;;;;;;;14.20;99.90;;;;;;4978962;28;865;-52
2021/10/27 03:38:20;;;;;;;;;;;14.20;99.90;;;;;;4979048;28;853;-52
2021/10/27 03:40:46;;;;;;;;;;;14.20;99.90;;;;;;4978624;28;1016;-52
2021/10/27 03:43:14;;;;;;;;;;;14.20;99.90;;;;;;4978274;28;1903;-52
2021/10/27 03:45:40;;;;;;;;;;;14.20;99.90;;;;;;4978907;28;946;-52
2021/10/27 03:48:06;;;;;;;;;;;14.20;99.90;;;;;;4978520;28;754;-52
2021/10/27 03:50:32;;;;;;;;;;;14.20;99.90;;;;;;4978222;28;1071;-52
2021/10/27 03:52:59;;;;;;;;;;;14.20;99.90;;;;;;4978449;28;997;-52
2021/10/27 03:55:25;;;;;;;;;;;14.20;99.90;;;;;;4978614;28;906;-52
2021/10/27 03:57:51;;;;;;;;;;;14.20;99.90;;;;;;4978307;28;770;-52
2021/10/27 04:00:16;;;;;;;;;;;14.20;99.90;;;;;;4978160;28;849;-52
2021/10/27 04:02:42;;;;;;;;;;;14.20;99.90;;;;;;4978191;28;1911;-52
2021/10/27 04:05:09;;;;;;;;;;;14.20;99.90;;;;;;4978222;28;856;-52
2021/10/27 04:07:38;;;;;;;;;;;14.20;99.90;;;;;;4978503;28;898;-52
2021/10/27 04:10:05;;;;;;;;;;;14.20;99.90;;;;;;4978102;28;834;-52
2021/10/27 04:12:31;;;;;;;;;;;14.20;99.90;;;;;;4976749;28;1189;-52
2021/10/27 04:14:58;;;;;;;;;;;14.20;99.90;;;;;;4978323;28;1119;-52
2021/10/27 04:17:24;;;;;;;;;;;14.20;99.90;;;;;;4978249;28;863;-52
2021/10/27 04:19:50;;;;;;;;;;;14.20;99.90;;;;;;4978058;28;932;-52
2021/10/27 04:22:16;;;;;;;;;;;14.20;99.90;;;;;;4977886;28;1961;-52
2021/10/27 04:24:41;;;;;;;;;;;14.20;99.90;;;;;;4978127;28;830;-52
2021/10/27 04:27:07;;;;;;;;;;;14.20;99.90;;;;;;4978242;28;826;-52
2021/10/27 04:29:33;;;;;;;;;;;14.20;99.90;;;;;;4978016;28;811;-52
2021/10/27 04:31:59;;;;;;;;;;;14.20;99.90;;;;;;4977634;28;967;-52
2021/10/27 04:34:26;;;;;;;;;;;14.20;99.90;;;;;;4977668;28;894;-54
2021/10/27 04:36:52;;;;;;;;;;;14.20;99.90;;;;;;4977568;28;798;-54
2021/10/27 04:39:18;;;;;;;;;;;14.20;99.90;;;;;;4977681;28;881;-54
2021/10/27 04:41:44;;;;;;;;;;;14.20;99.90;;;;;;4977674;28;1898;-54
2021/10/27 04:44:10;;;;;;;;;;;14.20;99.90;;;;;;4973114;28;1501;-54
2021/10/27 04:46:36;;;;;;;;;;;14.20;99.90;;;;;;4977333;28;834;-54
2021/10/27 04:49:02;;;;;;;;;;;14.20;99.90;;;;;;4977278;28;901;-54
2021/10/27 04:51:28;;;;;;;;;;;14.20;99.90;;;;;;4977770;28;858;-54
2021/10/27 04:53:54;;;;;;;;;;;14.20;99.90;;;;;;4977437;28;840;-54
2021/10/27 04:56:20;;;;;;;;;;;14.20;99.90;;;;;;4977298;28;769;-54
2021/10/27 04:58:46;;;;;;;;;;;14.30;99.90;;;;;;4977442;28;747;-54
2021/10/27 05:01:12;;;;;;;;;;;14.30;99.90;;;;;;4976981;28;1942;-52
2021/10/27 05:03:38;;;;;;;;;;;14.30;99.90;;;;;;4977455;28;987;-52
2021/10/27 05:06:04;;;;;;;;;;;14.40;99.90;;;;;;4977055;28;1057;-52
2021/10/27 05:08:32;;;;;;;;;;;14.50;99.90;;;;;;4977485;28;815;-54
2021/10/27 05:10:58;;;;;;;;;;;14.50;99.90;;;;;;4977364;28;879;-54
2021/10/27 05:13:24;;;;;;;;;;;14.60;99.90;;;;;;4977351;28;821;-54
2021/10/27 05:15:50;;;;;;;;;;;14.60;99.90;;;;;;4977204;28;906;-54
2021/10/27 05:18:16;;;;;;;;;;;14.60;99.90;;;;;;4975416;28;819;-52
2021/10/27 05:20:43;;;;;;;;;;;14.70;99.90;;;;;;4976965;28;1082;-52
2021/10/27 05:23:09;;;;;;;;;;;14.70;99.90;;;;;;4977204;28;1980;-52
2021/10/27 05:25:35;;;;;;;;;;;14.70;99.90;;;;;;4977169;28;877;-52
2021/10/27 05:28:02;;;;;;;;;;;14.80;99.90;;;;;;4977010;28;859;-53
2021/10/27 05:30:28;;;;;;;;;;;14.80;99.90;;;;;;4976874;28;842;-52
2021/10/27 05:32:56;;;;;;;;;;;14.80;99.90;;;;;;4977467;28;873;-52
2021/10/27 05:35:26;;;;;;;;;;;14.80;99.90;;;;;;4977176;28;827;-54
2021/10/27 05:37:52;;;;;;;;;;;14.80;99.90;;;;;;4977098;28;903;-54
2021/10/27 05:40:18;;;;;;;;;;;14.80;99.90;;;;;;4977101;28;774;-52
2021/10/27 05:42:46;;;;;;;;;;;14.80;99.90;;;;;;4976768;28;1922;-52
2021/10/27 05:45:12;;;;;;;;;;;14.80;99.90;;;;;;4977898;28;1041;-52
2021/10/27 05:47:42;;;;;;;;;;;14.90;99.90;;;;;;4980703;28;866;-52
2021/10/27 05:50:23;;;;;;;;;;;14.90;99.90;;;;;;4980761;28;858;-52
2021/10/27 05:55:34;;;;;;;;;;;14.90;99.90;;;;;;4980606;28;916;-52
2021/10/27 05:58:01;;;;;;;;;;;14.80;99.90;;;;;;4980855;28;914;-54
2021/10/27 06:00:26;;;;;;;;;;;14.80;99.90;;;;;;4979336;28;920;-54
2021/10/27 06:02:52;;;;;;;;;;;14.80;99.90;;;;;;4980427;28;1915;-54
2021/10/27 06:05:18;;;;;;;;;;;14.80;99.90;;;;;;4980556;28;835;-54
2021/10/27 06:07:45;;;;;;;;;;;14.80;99.90;;;;;;4979432;28;1003;-54
2021/10/27 06:10:13;;;;;;;;;;;14.80;99.90;;;;;;4980215;28;882;-54
2021/10/27 06:12:40;;;;;;;;;;;14.70;99.90;;;;;;4977289;28;1192;-54
2021/10/27 06:15:06;;;;;;;;;;;14.70;99.90;;;;;;4977871;28;1392;-52
2021/10/27 06:17:32;;;;;;;;;;;14.70;99.90;;;;;;4980315;28;852;-54
2021/10/27 06:19:58;;;;;;;;;;;14.70;99.90;;;;;;4980264;28;940;-52
2021/10/27 06:22:24;;;;;;;;;;;14.70;99.90;;;;;;4980145;28;1907;-54
2021/10/27 06:24:53;;;;;;;;;;;14.70;99.90;;;;;;4980023;28;814;-54
2021/10/27 06:27:19;;;;;;;;;;;14.70;99.90;;;;;;4976171;28;923;-55
2021/10/27 06:29:50;;;;;;;;;;;14.70;99.90;;;;;;4980423;28;866;-54
2021/10/27 06:34:51;;;;;;;;;;;14.70;99.90;;;;;;4979812;28;843;-54
2021/10/27 06:48:03;;;;;;;;;;;14.60;99.90;;;;;;4979924;28;770;-54
2021/10/27 06:50:29;;;;;;;;;;;14.60;99.90;;;;;;4979782;28;894;-54
2021/10/27 06:52:55;;;;;;;;;;;14.70;99.90;;;;;;4980107;28;938;-54
2021/10/27 06:55:21;;;;;;;;;;;14.60;99.90;;;;;;4979465;28;859;-52
2021/10/27 06:57:48;;;;;;;;;;;14.60;99.90;;;;;;4979796;28;991;-53
2021/10/27 07:00:37;;;;;;;;;;;14.60;99.90;;;;;;4980013;28;872;-52
2021/10/27 07:16:25;;;;;;;;;;;14.60;99.90;;;;;;4979158;28;847;-54
2021/10/27 07:18:51;;;;;;;;;;;14.60;99.90;;;;;;4978262;28;1121;-54
2021/10/27 07:21:17;;;;;;;;;;;14.70;99.90;;;;;;4974452;28;881;-54
2021/10/27 07:23:43;;;;;;;;;;;14.60;99.90;;;;;;4974456;28;1999;-54
2021/10/27 07:26:09;;;;;;;;;;;14.70;99.90;;;;;;4979339;28;1092;-54
2021/10/27 07:28:35;;;;;;;;;;;14.70;99.90;;;;;;4979332;28;1198;-54
2021/10/27 07:31:03;;;;;;;;;;;14.70;99.90;;;;;;4979171;28;818;-54
2021/10/27 07:33:30;;;;;;;;;;;14.70;99.90;;;;;;4979008;28;960;-54
2021/10/27 07:41:10;;;;;;;;;;;14.70;99.90;;;;;;4978718;28;909;-52
2021/10/27 07:43:36;;;;;;;;;;;14.70;99.90;;;;;;4978537;28;1906;-52
2021/10/27 07:46:02;;;;;;;;;;;14.70;99.90;;;;;;4978469;28;822;-52
2021/10/27 07:48:29;;;;;;;;;;;14.70;99.90;;;;;;4978779;28;857;-52
2021/10/27 07:50:58;;;;;;;;;;;14.80;99.90;;;;;;4978476;28;786;-51
2021/10/27 07:53:25;;;;;;;;;;;14.80;99.90;;;;;;4978401;28;869;-52
2021/10/27 07:55:51;;;;;;;;;;;14.80;99.90;;;;;;4978614;28;931;-54
2021/10/27 07:58:18;;;;;;;;;;;14.80;99.90;;;;;;4978292;28;870;-54
2021/10/27 08:00:44;;;;;;;;;;;14.80;99.90;;;;;;4978261;28;937;-52
2021/10/27 08:03:10;;;;;;;;;;;14.80;99.90;;;;;;4976909;28;1906;-52
2021/10/27 08:05:38;;;;;;;;;;;14.80;99.90;;;;;;4978250;28;911;-51
2021/10/27 08:08:05;;;;;;;;;;;14.80;99.90;;;;;;4977456;28;796;-54
2021/10/27 08:10:32;;;;;;;;;;;14.80;99.90;;;;;;4977987;28;877;-54
2021/10/27 08:12:58;;;;;;;;;;;14.80;99.90;;;;;;4978532;28;858;-54
2021/10/27 08:15:24;;;;;;;;;;;14.80;99.90;;;;;;4978052;28;853;-54
2021/10/27 08:17:50;;;;;;;;;;;14.80;99.90;;;;;;4977112;28;1193;-54
2021/10/27 08:20:18;;;;;;;;;;;14.80;99.90;;;;;;4976608;28;1466;-54
2021/10/27 08:22:46;;;;;;;;;;;14.80;99.90;;;;;;4973938;28;1906;-54
2021/10/27 08:25:23;;;;;;;;;;;14.80;99.90;;;;;;4978452;28;1005;-54
2021/10/27 08:27:49;;;;;;;;;;;14.80;99.90;;;;;;4977865;28;904;-54
2021/10/27 08:30:18;;;;;;;;;;;14.80;99.90;;;;;;4978250;28;890;-52
2021/10/27 08:35:13;;;;;;;;;;;14.90;99.90;;;;;;4977566;28;784;-52
2021/10/27 08:37:46;;;;;;;;;;;14.80;99.90;;;;;;4977010;28;926;-53
2021/10/27 08:40:14;;;;;;;;;;;14.80;99.90;;;;;;4978036;28;904;-54
2021/10/27 08:42:41;;;;;;;;;;;14.80;99.90;;;;;;4977369;28;1898;-54
2021/10/27 08:45:07;;;;;;;;;;;14.80;99.90;;;;;;4977405;28;1092;-54
2021/10/27 08:47:35;;;;;;;;;;;14.80;99.90;;;;;;4977273;28;1111;-54
2021/10/27 08:50:02;;;;;;;;;;;14.80;99.90;;;;;;4977226;28;938;-54
2021/10/27 08:52:28;;;;;;;;;;;14.80;99.90;;;;;;4977683;28;871;-54
2021/10/27 08:54:54;;;;;;;;;;;14.80;99.90;;;;;;4977681;28;865;-54
2021/10/27 08:57:21;;;;;;;;;;;14.80;99.90;;;;;;4976348;28;854;-54
2021/10/27 08:59:58;;;;;;;;;;;14.80;99.90;;;;;;4976104;28;1097;-52
2021/10/27 09:45:08;;;;;;;;;;;14.80;99.90;;;;;;4994344;28;1907;-52
2021/10/27 09:55:53;;;;;;;;;;;14.90;99.90;;;;;;4994598;28;1011;-54
2021/10/27 10:06:49;;;;;;;;;;;14.90;99.90;;;;;;4973463;28;1227;-52
2021/10/27 10:09:15;;;;;;;;;;;14.90;99.90;;;;;;4985421;28;1041;-52
2021/10/27 10:11:41;;;;;;;;;;;14.90;99.90;;;;;;4976610;28;841;-54
2021/10/27 10:14:08;;;;;;;;;;;14.90;99.90;;;;;;4976314;28;923;-52
2021/10/27 10:16:42;;;;;;;;;;;15.00;99.90;;;;;;4976386;28;810;-52
2021/10/27 10:19:10;;;;;;;;;;;15.00;99.90;;;;;;4976742;28;869;-54
2021/10/27 10:21:43;;;;;;;;;;;15.00;99.90;;;;;;4976652;28;911;-54
2021/10/27 10:24:16;;;;;;;;;;;15.00;99.90;;;;;;4977018;28;1879;-52
2021/10/27 10:26:43;;;;;;;;;;;15.00;99.90;;;;;;4974499;28;1299;-52
2021/10/27 10:29:09;;;;;;;;;;;15.00;99.90;;;;;;4976992;28;887;-52
2021/10/27 10:31:36;;;;;;;;;;;15.00;99.90;;;;;;4978053;28;798;-53
2021/10/27 10:34:09;;;;;;;;;;;15.00;99.90;;;;;;4979898;28;750;-52
2021/10/27 10:36:40;;;;;;;;;;;15.00;99.90;;;;;;4980193;28;889;-53
2021/10/27 10:39:34;;;;;;;;;;;15.00;99.90;;;;;;4979869;28;976;-53
2021/10/27 11:26:37;;;;;;;;;;;15.30;99.90;;;;;;4979251;28;774;-53
2021/10/27 11:40:17;;;;;;;;;;;15.40;99.90;;;;;;4978747;28;747;-52
2021/10/27 11:48:02;;;;;;;;;;;15.50;99.90;;;;;;4978775;28;823;-55
2021/10/27 11:50:32;;;;;;;;;;;15.50;99.90;;;;;;4978311;28;912;-55
2021/10/27 11:53:01;;;;;;;;;;;15.50;99.90;;;;;;4971656;28;870;-53
2021/10/27 11:55:28;;;;;;;;;;;15.50;99.90;;;;;;4972842;28;824;-52
2021/10/27 11:57:54;;;;;;;;;;;15.50;99.90;;;;;;4978940;28;1032;-52
2021/10/27 12:00:37;;;;;;;;;;;15.50;99.90;;;;;;4978764;28;857;-52
2021/10/27 12:03:09;;;;;;;;;;;15.50;99.90;;;;;;4973660;28;1914;-54
2021/10/27 12:06:01;;;;;;;;;;;15.50;99.90;;;;;;4978245;28;1098;-53
2021/10/27 12:14:12;;;;;;;;;;;15.60;99.90;;;;;;4978306;28;791;-55
2021/10/27 12:19:21;;;;;;;;;;;15.70;99.90;;;;;;4978182;28;772;-52
2021/10/27 12:21:49;;;;;;;;;;;15.70;99.90;;;;;;4978224;28;963;-52
2021/10/27 12:24:23;;;;;;;;;;;15.70;99.90;;;;;;4977976;28;1907;-52
2021/10/27 12:26:56;;;;;;;;;;;15.70;99.90;;;;;;4978357;28;1023;-55
2021/10/27 12:29:26;;;;;;;;;;;15.70;99.90;;;;;;4977058;28;1221;-55
2021/10/27 12:32:07;;;;;;;;;;;15.70;99.90;;;;;;4974833;28;1355;-55
2021/10/27 12:34:52;;;;;;;;;;;15.70;99.90;;;;;;4977648;28;771;-55
2021/10/27 12:37:20;;;;;;;;;;;15.70;99.90;;;;;;4977735;28;880;-55
2021/10/27 12:39:47;;;;;;;;;;;15.70;99.90;;;;;;4977797;28;1067;-53
2021/10/27 12:42:14;;;;;;;;;;;15.70;99.90;;;;;;4977893;28;835;-53
2021/10/27 12:44:48;;;;;;;;;;;15.70;99.90;;;;;;4977209;28;1133;-52
2021/10/27 12:47:16;;;;;;;;;;;15.70;99.90;;;;;;4977615;28;817;-53
2021/10/27 12:49:44;;;;;;;;;;;15.70;99.90;;;;;;4977221;28;827;-54
2021/10/27 12:52:23;;;;;;;;;;;15.70;99.90;;;;;;4977453;28;779;-54
2021/10/27 12:55:04;;;;;;;;;;;15.70;99.90;;;;;;4977255;28;827;-55
2021/10/27 12:57:40;;;;;;;;;;;15.70;99.90;;;;;;4977221;28;821;-54
2021/10/27 13:00:18;;;;;;;;;;;15.70;99.90;;;;;;4977542;28;799;-54
2021/10/27 13:02:53;;;;;;;;;;;15.70;99.90;;;;;;4977382;28;1981;-55
2021/10/27 13:05:25;;;;;;;;;;;15.70;99.90;;;;;;4977143;28;866;-55
2021/10/27 13:07:58;;;;;;;;;;;15.70;99.90;;;;;;4977421;28;948;-55
2021/10/27 13:10:42;;;;;;;;;;;15.70;99.90;;;;;;4977440;28;921;-55
2021/10/27 13:16:28;;;;;;;;;;;15.70;99.90;;;;;;4975674;28;1294;-52
2021/10/27 13:22:03;;;;;;;;;;;15.70;99.90;;;;;;4976999;28;727;-52
2021/10/27 13:29:42;;;;;;;;;;;15.70;99.90;;;;;;4977126;28;779;-52
2021/10/27 13:32:20;;;;;;;;;;;15.70;99.90;;;;;;4977163;28;960;-52
2021/10/27 13:34:47;;;;;;;;;;;15.70;99.90;;;;;;4974979;28;1474;-53
2021/10/27 13:37:13;;;;;;;;;;;15.70;99.90;;;;;;4975173;28;941;-52
2021/10/27 13:39:40;;;;;;;;;;;15.70;99.90;;;;;;4976028;28;948;-53
2021/10/27 13:42:23;;;;;;;;;;;15.70;99.90;;;;;;4977458;28;873;-55
2021/10/27 13:45:14;;;;;;;;;;;15.70;99.90;;;;;;4974553;28;1286;-55
2021/10/27 13:47:46;;;;;;;;;;;15.70;99.90;;;;;;4976654;28;1513;-55
2021/10/27 14:09:09;;;;;;;;;;;15.60;99.90;;;;;;4980355;28;898;-52
2021/10/27 14:11:54;;;;;;;;;;;15.60;99.90;;;;;;4980388;28;790;-52
2021/10/27 14:14:38;;;;;;;;;;;15.60;99.90;;;;;;4980598;28;775;-53
2021/10/27 14:23:18;;;;;;;;;;;15.60;99.90;;;;;;4977250;28;1906;-55
2021/10/27 15:20:05;;;;;;;;;;;15.60;99.90;;;;;;4979065;28;801;-51
2021/10/27 15:28:09;;;;;;;;;;;15.60;99.90;;;;;;4979250;28;835;-51
2021/10/27 15:51:58;;;;;;;;;;;15.50;99.90;;;;;;4978422;28;885;-51
2021/10/27 15:54:24;;;;;;;;;;;15.50;99.90;;;;;;4978838;28;1121;-53
2021/10/27 15:56:50;;;;;;;;;;;15.50;99.90;;;;;;4978388;28;958;-53
2021/10/27 15:59:17;;;;;;;;;;;15.40;99.90;;;;;;4978390;28;843;-53
2021/10/27 16:01:44;;;;;;;;;;;15.40;99.90;;;;;;4978464;28;1033;-54
2021/10/27 16:04:10;;;;;;;;;;;15.40;99.90;;;;;;4978402;28;1910;-54
2021/10/27 16:06:42;;;;;;;;;;;15.40;99.90;;;;;;4977601;28;747;-54
2021/10/27 16:09:10;;;;;;;;;;;15.40;99.90;;;;;;4978407;28;953;-54
2021/10/27 16:11:36;;;;;;;;;;;15.40;99.90;;;;;;4978437;28;1043;-54
2021/10/27 16:14:03;;;;;;;;;;;15.40;99.90;;;;;;4971485;28;1106;-54
2021/10/27 16:16:30;;;;;;;;;;;15.40;99.90;;;;;;4974025;28;1144;-54
2021/10/27 16:19:00;;;;;;;;;;;15.30;99.90;;;;;;4971586;28;1673;-49
2021/10/27 16:21:29;;;;;;;;;;;15.40;99.90;;;;;;4975517;28;1673;-52
2021/10/27 16:23:58;;;;;;;;;;;15.40;99.90;;;;;;4972444;28;1914;-54
2021/10/27 16:26:25;;;;;;;;;;;15.30;99.90;;;;;;4972095;28;1661;-52
2021/10/27 16:28:51;;;;;;;;;;;15.40;99.90;;;;;;4974897;28;1271;-52
2021/10/27 16:31:18;;;;;;;;;;;15.30;99.90;;;;;;4976598;28;1032;-52
2021/10/27 16:33:46;;;;;;;;;;;15.20;99.90;;;;;;4974783;28;1405;-51
2021/10/27 16:36:23;;;;;;;;;;;15.20;99.90;;;;;;4969674;28;1196;-49
2021/10/27 16:38:51;;;;;;;;;;;15.10;99.90;;;;;;4966614;28;1141;-49
2021/10/27 16:41:18;;;;;;;;;;;15.10;99.90;;;;;;4971266;28;1292;-54
2021/10/27 16:43:44;;;;;;;;;;;15.20;99.90;;;;;;4974743;28;1906;-56
2021/10/27 16:46:12;;;;;;;;;;;15.10;99.90;;;;;;4975111;28;1717;-54
2021/10/27 16:48:40;;;;;;;;;;;15.10;99.90;;;;;;4973940;28;2024;-52
2021/10/27 16:51:07;;;;;;;;;;;15.10;99.90;;;;;;4975898;28;963;-53
2021/10/27 16:53:36;;;;;;;;;;;15.10;99.90;;;;;;4963781;28;1525;-52
2021/10/27 16:56:04;;;;;;;;;;;15.10;99.90;;;;;;4973534;28;1374;-52
2021/10/27 16:58:30;;;;;;;;;;;15.20;99.90;;;;;;4977195;28;861;-51
2021/10/27 17:00:57;;;;;;;;;;;15.20;99.90;;;;;;4977525;28;892;-52
2021/10/27 17:03:23;;;;;;;;;;;15.30;99.90;;;;;;4971849;28;1969;-52
2021/10/27 17:05:49;;;;;;;;;;;15.40;99.90;;;;;;4967622;28;1208;-51
2021/10/27 17:08:20;;;;;;;;;;;15.50;99.90;;;;;;4970822;28;1398;-52
2021/10/27 17:10:49;;;;;;;;;;;15.70;99.90;;;;;;4977453;28;777;-51
2021/10/27 17:13:15;;;;;;;;;;;15.80;99.90;;;;;;4973198;28;1105;-52
2021/10/27 17:15:43;;;;;;;;;;;16.00;99.90;;;;;;4973841;28;1163;-52
2021/10/27 17:18:11;;;;;;;;;;;16.20;99.90;;;;;;4976962;28;767;-51
2021/10/27 17:20:38;;;;;;;;;;;16.30;99.90;;;;;;4956779;28;1138;-51
2021/10/27 17:23:04;;;;;;;;;;;16.40;99.90;;;;;;4976390;28;1944;-51
2021/10/27 17:25:32;;;;;;;;;;;16.50;99.90;;;;;;4976704;28;1049;-51
2021/10/27 17:27:58;;;;;;;;;;;16.60;99.90;;;;;;4975123;28;944;-51
2021/10/27 17:30:25;;;;;;;;;;;16.70;99.90;;;;;;4975382;28;870;-51
2021/10/27 17:32:53;;;;;;;;;;;16.70;99.90;;;;;;4976802;28;868;-51
2021/10/27 17:35:19;;;;;;;;;;;16.80;99.90;;;;;;4976465;28;1219;-51
2021/10/27 17:37:47;;;;;;;;;;;16.80;99.90;;;;;;4976775;28;786;-51
2021/10/27 17:40:20;;;;;;;;;;;16.80;99.90;;;;;;4974651;28;906;-51
2021/10/27 17:42:48;;;;;;;;;;;16.90;99.90;;;;;;4978126;28;925;-51
2021/10/27 17:45:20;;;;;;;;;;;16.90;99.90;;;;;;4980425;28;1974;-51
2021/10/27 17:47:50;;;;;;;;;;;16.90;99.90;;;;;;4979784;28;945;-51
2021/10/27 17:50:31;;;;;;;;;;;17.00;99.90;;;;;;4980436;28;998;-51
2021/10/27 17:58:38;;;;;;;;;;;17.00;99.90;;;;;;4980687;28;901;-56
2021/10/27 18:01:08;;;;;;;;;;;17.00;99.90;;;;;;4980607;28;821;-51
2021/10/27 18:03:35;;;;;;;;;;;16.90;99.90;;;;;;4980235;28;1953;-51
2021/10/27 18:06:04;;;;;;;;;;;16.90;99.90;;;;;;4980310;28;850;-51
2021/10/27 18:08:31;;;;;;;;;;;16.90;99.90;;;;;;4980619;28;877;-55
2021/10/27 18:10:59;;;;;;;;;;;16.90;99.90;;;;;;4980536;28;966;-56
2021/10/27 18:13:30;;;;;;;;;;;16.90;99.90;;;;;;4978798;28;1260;-51
2021/10/27 18:16:10;;;;;;;;;;;16.90;99.90;;;;;;4976571;28;948;-51
2021/10/27 18:18:49;;;;;;;;;;;16.90;99.90;;;;;;4980170;28;798;-51
2021/10/27 18:21:23;;;;;;;;;;;16.90;99.90;;;;;;4959227;29;1220;-51
2021/10/27 18:43:14;;;;;;;;;;;16.90;99.90;;;;;;4937156;29;1914;-55
2021/10/27 18:45:41;;;;;;;;;;;16.90;99.90;;;;;;4939968;29;1010;-56
2021/10/27 18:48:11;;;;;;;;;;;16.80;99.90;;;;;;4939775;29;940;-52
2021/10/27 18:50:49;;;;;;;;;;;16.80;99.90;;;;;;4939516;29;781;-56
2021/10/27 18:53:45;;;;;;;;;;;16.80;99.90;;;;;;4938860;29;880;-56
2021/10/27 19:01:39;;;;;;;;;;;16.70;99.90;;;;;;4942736;29;943;-55
2021/10/27 19:17:23;;;;;;;;;;;16.50;99.90;;;;;;4979349;28;839;-56
2021/10/27 19:19:52;;;;;;;;;;;16.40;99.90;;;;;;4978886;28;902;-56
2021/10/27 19:22:21;;;;;;;;;;;16.50;99.90;;;;;;4979190;28;766;-56
2021/10/27 19:30:16;;;;;;;;;;;16.40;99.90;;;;;;4978961;28;845;-56
2021/10/27 20:30:27;;;;;;;;;;;19.80;99.90;;;;;;4977727;28;904;-53
2021/10/27 20:53:52;;;;;;;;;;;20.10;99.90;;;;;;4977397;28;894;-53
2021/10/27 20:56:21;;;;;;;;;;;20.10;99.90;;;;;;4978059;28;866;-53
2021/10/27 21:01:23;;;;;;;;;;;20.10;99.90;;;;;;4977553;28;1281;-53
2021/10/27 21:14:47;;;;;;;;;;;18.40;99.90;;;;;;4972381;28;1313;-54
2021/10/27 21:17:15;;;;;;;;;;;18.20;99.90;;;;;;4971190;28;1342;-53
2021/10/27 21:19:41;;;;;;;;;;;18.10;99.90;;;;;;4969969;28;1314;-53
2021/10/27 21:22:11;;;;;;;;;;;17.90;99.90;;;;;;4987584;28;1432;-53
2021/10/27 21:24:42;;;;;;;;;;;17.80;99.90;;;;;;4972204;28;1915;-53
2021/10/27 21:27:15;;;;;;;;;;;17.70;99.90;;;;;;4977257;28;859;-53
2021/10/27 21:29:56;;;;;;;;;;;17.60;99.90;;;;;;4977284;28;835;-53
2021/10/27 21:43:23;;;;;;;;;;;17.20;99.90;;;;;;4976848;28;1177;-51
2021/10/27 21:45:49;;;;;;;;;;;17.20;99.90;;;;;;4976373;28;1969;-51
2021/10/27 21:48:16;;;;;;;;;;;17.10;99.90;;;;;;4976611;28;884;-51
2021/10/27 21:50:44;;;;;;;;;;;17.00;99.90;;;;;;4976790;28;778;-51
2021/10/27 21:53:12;;;;;;;;;;;17.00;99.90;;;;;;4977115;28;897;-51
2021/10/27 21:55:41;;;;;;;;;;;17.00;99.90;;;;;;4975926;28;917;-51
2021/10/27 21:58:14;;;;;;;;;;;16.90;99.90;;;;;;4974440;28;1716;-51
2021/10/27 22:00:46;;;;;;;;;;;16.90;99.90;;;;;;4974101;28;1247;-51